Eareckson Air Station Shemya US
ICAO: PASY
IATA:
Category: Medium
Scheduled Services:

Elevation: 95 ft
TransAlt. 18000 ft.

Airport Communications:
ASOS:135.65
ANCHORAGE CNTR:119.1
CTAF:127.2

PASY Zoom In..

If you have problems with the map follow the link
https://www.worldairports.se/pages/airport.php?
ICAO=PASY

Runways:

(A) RW 10 length 10004 ft width 150 ft
---- / hdg 105

(B) RW 28 length 10004 ft width 150 ft
ILS 110.10 / hdg 285

Location; PASY
Day. 19 / Time. 17.57 Zulu
* Altimeter: 29.40
* Temperature: 4/° c. 39.2°f.
* Wind from: 010° Speed 25 kn with Gusts up to 30 kn.
Dewpoint: 01° c.
Visibility: 7 Statute Miles.
Clouds: Few 2900 ft.
Clouds: Scattered 3800 ft.
Clouds: Broken 4800 ft.

PASY 191757Z 01025G30KT 7SM FEW029 SCT038 BKN048 M01/M05 A2940 RMK AO2A PK WND 36036/04 SHSNB00E45 SLP960 60001 4/001 T10121047 11004 21022 53029 RVRNO FZRANO $


Wind From 010°
Speed 25 kn.

 
 
jpsmedia worldairports.se 2020   terms of use